James Clark Ross — ZDLP — position and weather

sailwx.info

Track history (hours):
 
Tides and Currents Weather Stations Pressure Air Temp Water Temp Dewpoint Dewpoint Depression Visibility Wind Speed Wind Dir Waves Ship Positions

Oceanographic research ship James Clark Ross (UK)

Detailed information on ship capabilities available from University of Delaware's Ocean Information Center and ARCUS's ALIAS (Arctic Logistics Information and Support) project.

Last reported at 2015-Jan-31 00:00 UTC. Time now 2015-Jan-31 19:18 UTC.
Position S 53°00' W 067°30'.

Length 99 m; beam 18.8 m; draft 6.3 m.

Type: Ship. MMSI: 740339000.

Wind from 160 at 6 knots

Waves 1.0 meters (3 feet), 4 second period

Barometer 1002.0 mb
Air temperature 12.6 ° C
Visibility: greater than 10.8 NM
Dewpoint 9.2 ° C
Water temperature 11.1 ° C

Date/timePositionNaut miles runAvg speedWind from/ knotsBaromVisibWave heightAir tempDewpointWater temp
2015-Jan-31 00:00S 53°00' W 067°30'10910.9 160 / 61002.010.8 1.012.6 9.211.1
2015-Jan-30 14:00S 52°54' W 070°30'1414.0 1001.8 12.9 6.9
2015-Jan-30 13:00S 53°06' W 070°42'9 4.7 1001.3 13.1 8.6
2015-Jan-30 11:00S 53°12' W 070°54'0 0.0 1001.5 12.5 8.3
2015-Jan-30 09:00S 53°12' W 070°54'0 0.0 1001.0 12.6 8.2
2015-Jan-30 08:00S 53°12' W 070°54'0 0.0 1001.2 13.0 8.3
2015-Jan-30 06:00S 53°12' W 070°54'0 0.0 1001.7 14.3 7.4
2015-Jan-30 05:00S 53°12' W 070°54'0 0.0 1002.2 14.3 6.9
2015-Jan-30 04:00S 53°12' W 070°54'0 0.0 1002.8 15.4 6.2
2015-Jan-30 03:00S 53°12' W 070°54'0 0.0 1003.0 15.7 5.8
2015-Jan-30 02:00S 53°12' W 070°54'0 0.0 1003.2 15.3 4.6
2015-Jan-30 01:00S 53°12' W 070°54'0 0.0 1003.3 16.2 4.0
2015-Jan-30 00:00S 53°12' W 070°54'0 0.0 1003.6 15.6 5.6
2015-Jan-29 23:00S 53°12' W 070°54'0 0.0 1004.0 18.0 3.2
2015-Jan-29 22:00S 53°12' W 070°54'0 0.0 1004.2 18.6 2.5
2015-Jan-29 21:00S 53°12' W 070°54'0 0.0 1004.3 19.1 2.7
2015-Jan-29 20:00S 53°12' W 070°54'0 0.0 1005.3 17.8 2.2
2015-Jan-29 19:00S 53°12' W 070°54'0 0.0 1006.0 11.8 6.5
2015-Jan-29 18:00S 53°12' W 070°54'0 0.0 1006.9 12.4 5.6
2015-Jan-29 16:00S 53°12' W 070°54'0 0.0 1008.1 16.4 2.6
2015-Jan-29 15:00S 53°12' W 070°54'0 0.0 1008.8 15.4 2.6
2015-Jan-29 14:00S 53°12' W 070°54'0 0.0 1009.6 15.4 2.8
2015-Jan-29 13:00S 53°12' W 070°54'0 0.0 1010.6 12.1 5.1
2015-Jan-29 12:00S 53°12' W 070°54'0 0.0 1011.2 12.9 3.0
2015-Jan-29 11:00S 53°12' W 070°54'0 0.0 1012.0 11.7 2.6
2015-Jan-29 10:00S 53°12' W 070°54'0 0.0 1012.4 9.0 2.0
2015-Jan-29 09:00S 53°12' W 070°54'0 0.0 1012.8 8.0 2.9
2015-Jan-29 08:00S 53°12' W 070°54'0 0.0 1013.4 7.8 2.7
2015-Jan-29 06:00S 53°12' W 070°54'0 0.0 1013.8 9.3 3.4
2015-Jan-29 05:00S 53°12' W 070°54'0 0.0 1014.3 10.8 3.7
2015-Jan-29 03:00S 53°12' W 070°54'0 0.0 1014.4 11.4 4.0
2015-Jan-29 02:00S 53°12' W 070°54'0 0.0 1014.6 11.8 3.6
2015-Jan-29 01:00S 53°12' W 070°54'0 0.0 1014.5 13.1 3.3
2015-Jan-29 00:00S 53°12' W 070°54'0 0.0 1014.4 13.4 2.6
2015-Jan-28 23:00S 53°12' W 070°54'0 0.0 1014.3 13.8 2.5
2015-Jan-28 22:00S 53°12' W 070°54'0 0.0 1014.1 14.4 2.5
2015-Jan-28 21:00S 53°12' W 070°54'0 0.0 1014.0 14.3 2.2
2015-Jan-28 20:00S 53°12' W 070°54'0 0.0 1014.0 14.3 2.2
2015-Jan-28 19:00S 53°12' W 070°54'0 0.0 1013.9 13.8 2.5
2015-Jan-28 17:00S 53°12' W 070°54'0 0.0 1014.0 12.8 1.9
2015-Jan-28 16:00S 53°12' W 070°54'0 0.0 1014.3 12.3 2.0
2015-Jan-28 15:00S 53°12' W 070°54'0 0.0 1014.3 12.0 2.0
2015-Jan-28 14:00S 53°12' W 070°54'0 0.0 1013.9 12.4 1.9
2015-Jan-28 13:00S 53°12' W 070°54'0 0.0 1013.7 12.0 2.4
2015-Jan-28 12:00S 53°12' W 070°54'0 0.0 1013.5 11.2 0.8
2015-Jan-28 10:00S 53°12' W 070°54'0 0.0 1013.6 7.9 0.4
2015-Jan-28 09:00S 53°12' W 070°54'0 0.0 1013.1 7.1-0.2
2015-Jan-28 08:00S 53°12' W 070°54'0 0.0 1012.7 7.3-0.0
2015-Jan-28 07:00S 53°12' W 070°54'0 0.0 1012.5 7.7-0.4
2015-Jan-28 06:00S 53°12' W 070°54'0 0.0 1012.3 7.3-0.5
2015-Jan-28 04:00S 53°12' W 070°54'0 0.0 1011.6 8.5-0.4
2015-Jan-28 03:00S 53°12' W 070°54'0 0.0 1010.8 9.4 0.9
2015-Jan-28 02:00S 53°12' W 070°54'0 0.0 1009.9 10.3 3.1
2015-Jan-28 01:00S 53°12' W 070°54'0 0.0 1008.8 11.6 4.2
2015-Jan-28 00:00S 53°12' W 070°54'0 0.0 1007.9 12.9 5.2
2015-Jan-27 23:00S 53°12' W 070°54'0 0.0 1006.9 11.9 7.8
2015-Jan-27 22:00S 53°12' W 070°54'0 0.0 1006.1 11.6 7.4
2015-Jan-27 21:00S 53°12' W 070°54'0 0.0 1005.4 12.3 6.9
2015-Jan-27 20:00S 53°12' W 070°54'0 0.0 1004.7 12.9 7.3
2015-Jan-27 19:00S 53°12' W 070°54'0 0.0 1004.2 12.3 7.0
2015-Jan-27 17:00S 53°12' W 070°54'0 0.0 1003.1 12.0 6.9
2015-Jan-27 16:00S 53°12' W 070°54'0 0.0 1002.9 12.3 7.1
2015-Jan-27 15:00S 53°12' W 070°54'0 0.0 1002.2 12.0 6.2
2015-Jan-27 14:00S 53°12' W 070°54'0 0.0 1001.5 13.4 6.0
2015-Jan-27 13:00S 53°12' W 070°54'0 0.0 1001.5 12.1 5.5
2015-Jan-27 12:00S 53°12' W 070°54'0 0.0 1001.1 10.6 5.1
2015-Jan-27 10:00S 53°12' W 070°54'0 0.0 1000.1 9.8 5.4
2015-Jan-27 09:00S 53°12' W 070°54'0 0.0 999.6 9.5 5.9
2015-Jan-27 07:00S 53°12' W 070°54'0 0.0 998.8 9.7 5.7
2015-Jan-27 06:00S 53°12' W 070°54'0 0.0 998.9 10.1 5.3
2015-Jan-27 05:00S 53°12' W 070°54'0 0.0 999.3 10.1 5.3
2015-Jan-27 03:00S 53°12' W 070°54'0 0.0 999.4 10.9 6.0
2015-Jan-27 00:00S 53°12' W 070°54'0 0.0 998.9 11.5 7.2
2015-Jan-26 23:00S 53°12' W 070°54'0 0.0 998.5 11.3 8.1
2015-Jan-26 22:00S 53°12' W 070°54'0 0.0 998.1 11.7 6.8
2015-Jan-26 21:00S 53°12' W 070°54'0 0.0 997.7 15.7 1.7
2015-Jan-26 19:00S 53°12' W 070°54'0 0.0 997.6 15.9 1.3
2015-Jan-26 18:00S 53°12' W 070°54'0 0.0 997.8 15.4 2.8
2015-Jan-26 17:00S 53°12' W 070°54'0 0.0 998.3 16.4 5.4
2015-Jan-26 13:00S 53°12' W 070°54'0 0.0 999.3 11.0 7.5
2015-Jan-26 12:00S 53°12' W 070°54'0 0.0 999.6 9.6 7.0
2015-Jan-26 11:00S 53°12' W 070°54'0 0.0 999.8 8.5 6.4
2015-Jan-26 10:00S 53°12' W 070°54'0 0.0 999.6 8.4 5.1
2015-Jan-26 09:00S 53°12' W 070°54'0 0.0 999.8 8.7 3.9
2015-Jan-26 07:00S 53°12' W 070°54'0 0.0 1001.0 9.5 2.9
2015-Jan-26 06:00S 53°12' W 070°54'0 0.0 1001.4 10.5 3.8
2015-Jan-26 05:00S 53°12' W 070°54'0 0.0 1001.9 10.5 3.7
2015-Jan-26 04:00S 53°12' W 070°54'0 0.0 1002.5 10.9 3.9
2015-Jan-26 03:00S 53°12' W 070°54'0 0.0 1002.9 11.5 3.4
2015-Jan-26 02:00S 53°12' W 070°54'0 0.0 1003.3 13.0 3.6
2015-Jan-26 01:00S 53°12' W 070°54'0 0.0 1003.3 13.4 3.0
2015-Jan-26 00:00S 53°12' W 070°54'0 0.0 1003.3 14.7 2.1
2015-Jan-25 22:00S 53°12' W 070°54'0 0.0 1003.6 14.9 1.0
2015-Jan-25 21:00S 53°12' W 070°54'0 0.0 1003.8 14.0 1.0
2015-Jan-25 20:00S 53°12' W 070°54'0 0.0 1004.0 14.1 1.0
2015-Jan-25 18:00S 53°12' W 070°54'0 0.0 1004.5 13.8-0.1
2015-Jan-25 16:00S 53°12' W 070°54'0 0.0 1005.7 12.5-0.7
2015-Jan-25 15:00S 53°12' W 070°54'0 0.0 1006.1 11.9-0.0
2015-Jan-25 13:00S 53°12' W 070°54'0 0.0 1007.0 11.3 1.3
2015-Jan-25 12:00S 53°12' W 070°54'0 0.0 1007.5 10.8 1.9
2015-Jan-25 11:00S 53°12' W 070°54'0 0.0 1007.7 8.4 1.2
2015-Jan-25 10:00S 53°12' W 070°54'0 0.0 1008.0 8.0 1.5
2015-Jan-25 09:00S 53°12' W 070°54'0 0.0 1008.1 7.7 1.1
2015-Jan-25 07:00S 53°12' W 070°54'0 0.0 1008.4 8.1-0.0
2015-Jan-25 06:00S 53°12' W 070°54'0 0.0 1009.0 7.9 0.4
2015-Jan-25 04:00S 53°12' W 070°54'0 0.0 1009.0 7.7-0.2
2015-Jan-25 02:00S 53°12' W 070°54'0 0.0 1009.0 9.5-0.1
2015-Jan-25 01:00S 53°12' W 070°54'0 0.0 1008.2 10.9 0.2
2015-Jan-25 00:00S 53°12' W 070°54'0 0.0 1007.4 12.0-2.3
2015-Jan-24 23:00S 53°12' W 070°54'0 0.0 1006.8 12.0-3.1
2015-Jan-24 21:00S 53°12' W 070°54'0 0.0 1005.6 13.8-1.8
2015-Jan-24 20:00S 53°12' W 070°54'0 0.0 1005.0 13.5-2.7
2015-Jan-24 18:00S 53°12' W 070°54'0 0.0 1003.4 13.2-2.8
2015-Jan-24 17:00S 53°12' W 070°54'0 0.0 1002.9 14.0-0.7
2015-Jan-24 15:00S 53°12' W 070°54'0 0.0 1001.5 14.4 1.0
2015-Jan-24 14:00S 53°12' W 070°54'0 0.0 1001.1 14.1 4.1
2015-Jan-24 13:00S 53°12' W 070°54'0 0.0 1000.4 14.3 4.5
2015-Jan-24 12:00S 53°12' W 070°54'0 0.0 1000.2 13.8 7.2
2015-Jan-24 11:00S 53°12' W 070°54'0 0.0 999.7 15.4 5.8
2015-Jan-24 10:00S 53°12' W 070°54'0 0.0 999.7 13.2 5.8
2015-Jan-24 09:00S 53°12' W 070°54'0 0.0 999.6 13.0 5.8
2015-Jan-24 08:00S 53°12' W 070°54'0 0.0 999.6 12.8 5.8
2015-Jan-24 07:00S 53°12' W 070°54'0 0.0 1000.1 12.0 7.1
2015-Jan-24 06:00S 53°12' W 070°54'0 0.0 1000.9 12.3 6.7
2015-Jan-24 04:00S 53°12' W 070°54'0 0.0 1002.7 17.8 3.9
2015-Jan-24 03:00S 53°12' W 070°54'0 0.0 1003.4 17.6 4.0
2015-Jan-24 02:00S 53°12' W 070°54'0 0.0 1004.0 18.4 2.7
2015-Jan-24 01:00S 53°12' W 070°54'0 0.0 1003.7 18.6 1.8
2015-Jan-24 00:00S 53°12' W 070°54'0 0.0 1003.8 19.3 0.5
2015-Jan-23 23:00S 53°12' W 070°54'0 0.0 1004.5 20.5 0.8
2015-Jan-23 22:00S 53°12' W 070°54'0 0.0 1004.7 21.8 1.4
2015-Jan-23 21:00S 53°12' W 070°54'0 0.0 1005.2 21.3-0.4
2015-Jan-23 20:00S 53°12' W 070°54'0 0.0 1005.7 21.6-0.3
2015-Jan-23 19:00S 53°12' W 070°54'0 0.0 1006.7 20.8 0.5
2015-Jan-23 18:00S 53°12' W 070°54'0 0.0 1007.6 20.8 1.4
2015-Jan-23 17:00S 53°12' W 070°54'0 0.0 1008.4 20.4 1.3
2015-Jan-23 15:00S 53°12' W 070°54'0 0.0 1009.1 18.4 2.7
2015-Jan-23 14:00S 53°12' W 070°54'0 0.0 1009.6 18.2 3.5
2015-Jan-23 12:00S 53°12' W 070°54'0 0.0 1010.2 15.6 5.0
2015-Jan-23 11:00S 53°12' W 070°54'0 0.0 1010.5 15.2 5.8
2015-Jan-23 10:00S 53°12' W 070°54'0 0.0 1010.8 13.3 5.5
2015-Jan-23 09:00S 53°12' W 070°54'0 0.0 1010.8 11.7 5.6
2015-Jan-23 08:00S 53°12' W 070°54'0 0.0 1010.4 11.6 4.8
2015-Jan-23 07:00S 53°12' W 070°54'0 0.0 1010.6 11.8 5.0
2015-Jan-22 09:00S 53°12' W 070°54'0 0.0 999.0 11.4 5.4
2015-Jan-22 08:00S 53°12' W 070°54'0 0.0 999.5 13.1 5.2
2015-Jan-22 07:00S 53°12' W 070°54'0 0.0 1000.2 14.8 3.7
2015-Jan-22 06:00S 53°12' W 070°54'0 0.0 1001.0 15.8 2.9
2015-Jan-22 05:00S 53°12' W 070°54'0 0.0 1001.3 16.6 2.7
2015-Jan-22 04:00S 53°12' W 070°54'0 0.0 1001.8 14.9 4.7
2015-Jan-22 03:00S 53°12' W 070°54'0 0.0 1002.4 15.0 5.6
2015-Jan-22 02:00S 53°12' W 070°54'0 0.0 1002.7 16.7 5.8
2015-Jan-22 01:00S 53°12' W 070°54'0 0.0 1003.0 20.3 2.3
2015-Jan-22 00:00S 53°12' W 070°54'0 0.0 1002.8 22.8 2.5
2015-Jan-21 23:00S 53°12' W 070°54'0 0.0 1003.7 21.9 3.3
2015-Jan-21 22:00S 53°12' W 070°54'0 0.0 1004.2 22.6 4.4
2015-Jan-21 21:00S 53°12' W 070°54'0 0.0 1004.7 22.3 6.1
2015-Jan-21 19:00S 53°12' W 070°54'0 0.0 1005.6 21.0 7.9
2015-Jan-21 18:00S 53°12' W 070°54'0 0.0 1006.3 19.6 8.2
2015-Jan-21 17:00S 53°12' W 070°54'0 0.0 1007.1 19.5 7.2
2015-Jan-21 16:00S 53°12' W 070°54'0 0.0 1007.5 18.3 6.2
2015-Jan-21 15:00S 53°12' W 070°54'0 0.0 1008.2 17.0 5.7
2015-Jan-21 14:00S 53°12' W 070°54'0 0.0 1008.7 15.8 6.1
2015-Jan-21 12:00S 53°12' W 070°54'0 0.0 1009.8 12.6 6.6
2015-Jan-21 11:00S 53°12' W 070°54'0 0.0 1010.5 12.7 6.6
2015-Jan-21 10:00S 53°12' W 070°54'0 0.0 1010.4 10.3 6.1
2015-Jan-21 09:00S 53°12' W 070°54'0 0.0 1010.8 9.4 6.4
2015-Jan-21 07:00S 53°12' W 070°54'0 0.0 1011.6 9.5 5.7
2015-Jan-21 06:00S 53°12' W 070°54'0 0.0 1011.4 10.5 5.8
2015-Jan-21 05:00S 53°12' W 070°54'0 0.0 1012.1 10.8 5.8
2015-Jan-21 04:00S 53°12' W 070°54'0 0.0 1012.5 11.7 5.8
2015-Jan-21 02:00S 53°12' W 070°54'0 0.0 1013.3 12.8 5.6
2015-Jan-21 01:00S 53°12' W 070°54'0 0.0 1013.0 13.5 4.8
2015-Jan-21 00:00S 53°12' W 070°54'   1013.2 14.8 5.0
Track history (hours):
 
Tides and Currents Weather Stations Pressure Air Temp Water Temp Dewpoint Dewpoint Depression Visibility Wind Speed Wind Dir Waves Ship Positions

Oceanographic research ship James Clark Ross (UK)

Detailed information on ship capabilities available from University of Delaware's Ocean Information Center and ARCUS's ALIAS (Arctic Logistics Information and Support) project.

Last reported at 2015-Jan-31 00:00 UTC. Time now 2015-Jan-31 19:18 UTC.
Position S 53°00' W 067°30'.

Length 99 m; beam 18.8 m; draft 6.3 m.

Type: Ship. MMSI: 740339000.

Wind from 160 at 6 knots

Waves 1.0 meters (3 feet), 4 second period

Barometer 1002.0 mb
Air temperature 12.6 ° C
Visibility: greater than 10.8 NM
Dewpoint 9.2 ° C
Water temperature 11.1 ° C

Date/timePositionNaut miles runAvg speedWind from/ knotsBaromVisibWave heightAir tempDewpointWater temp
2015-Jan-31 00:00S 53°00' W 067°30'10910.9 160 / 61002.010.8 1.012.6 9.211.1
2015-Jan-30 14:00S 52°54' W 070°30'1414.0 1001.8 12.9 6.9
2015-Jan-30 13:00S 53°06' W 070°42'9 4.7 1001.3 13.1 8.6
2015-Jan-30 11:00S 53°12' W 070°54'0 0.0 1001.5 12.5 8.3
2015-Jan-30 09:00S 53°12' W 070°54'0 0.0 1001.0 12.6 8.2
2015-Jan-30 08:00S 53°12' W 070°54'0 0.0 1001.2 13.0 8.3
2015-Jan-30 06:00S 53°12' W 070°54'0 0.0 1001.7 14.3 7.4
2015-Jan-30 05:00S 53°12' W 070°54'0 0.0 1002.2 14.3 6.9
2015-Jan-30 04:00S 53°12' W 070°54'0 0.0 1002.8 15.4 6.2
2015-Jan-30 03:00S 53°12' W 070°54'0 0.0 1003.0 15.7 5.8
2015-Jan-30 02:00S 53°12' W 070°54'0 0.0 1003.2 15.3 4.6
2015-Jan-30 01:00S 53°12' W 070°54'0 0.0 1003.3 16.2 4.0
2015-Jan-30 00:00S 53°12' W 070°54'0 0.0 1003.6 15.6 5.6
2015-Jan-29 23:00S 53°12' W 070°54'0 0.0 1004.0 18.0 3.2
2015-Jan-29 22:00S 53°12' W 070°54'0 0.0 1004.2 18.6 2.5
2015-Jan-29 21:00S 53°12' W 070°54'0 0.0 1004.3 19.1 2.7
2015-Jan-29 20:00S 53°12' W 070°54'0 0.0 1005.3 17.8 2.2
2015-Jan-29 19:00S 53°12' W 070°54'0 0.0 1006.0 11.8 6.5
2015-Jan-29 18:00S 53°12' W 070°54'0 0.0 1006.9 12.4 5.6
2015-Jan-29 16:00S 53°12' W 070°54'0 0.0 1008.1 16.4 2.6
2015-Jan-29 15:00S 53°12' W 070°54'0 0.0 1008.8 15.4 2.6
2015-Jan-29 14:00S 53°12' W 070°54'0 0.0 1009.6 15.4 2.8
2015-Jan-29 13:00S 53°12' W 070°54'0 0.0 1010.6 12.1 5.1
2015-Jan-29 12:00S 53°12' W 070°54'0 0.0 1011.2 12.9 3.0
2015-Jan-29 11:00S 53°12' W 070°54'0 0.0 1012.0 11.7 2.6
2015-Jan-29 10:00S 53°12' W 070°54'0 0.0 1012.4 9.0 2.0
2015-Jan-29 09:00S 53°12' W 070°54'0 0.0 1012.8 8.0 2.9
2015-Jan-29 08:00S 53°12' W 070°54'0 0.0 1013.4 7.8 2.7
2015-Jan-29 06:00S 53°12' W 070°54'0 0.0 1013.8 9.3 3.4
2015-Jan-29 05:00S 53°12' W 070°54'0 0.0 1014.3 10.8 3.7
2015-Jan-29 03:00S 53°12' W 070°54'0 0.0 1014.4 11.4 4.0
2015-Jan-29 02:00S 53°12' W 070°54'0 0.0 1014.6 11.8 3.6
2015-Jan-29 01:00S 53°12' W 070°54'0 0.0 1014.5 13.1 3.3
2015-Jan-29 00:00S 53°12' W 070°54'0 0.0 1014.4 13.4 2.6
2015-Jan-28 23:00S 53°12' W 070°54'0 0.0 1014.3 13.8 2.5
2015-Jan-28 22:00S 53°12' W 070°54'0 0.0 1014.1 14.4 2.5
2015-Jan-28 21:00S 53°12' W 070°54'0 0.0 1014.0 14.3 2.2
2015-Jan-28 20:00S 53°12' W 070°54'0 0.0 1014.0 14.3 2.2
2015-Jan-28 19:00S 53°12' W 070°54'0 0.0 1013.9 13.8 2.5
2015-Jan-28 17:00S 53°12' W 070°54'0 0.0 1014.0 12.8 1.9
2015-Jan-28 16:00S 53°12' W 070°54'0 0.0 1014.3 12.3 2.0
2015-Jan-28 15:00S 53°12' W 070°54'0 0.0 1014.3 12.0 2.0
2015-Jan-28 14:00S 53°12' W 070°54'0 0.0 1013.9 12.4 1.9
2015-Jan-28 13:00S 53°12' W 070°54'0 0.0 1013.7 12.0 2.4
2015-Jan-28 12:00S 53°12' W 070°54'0 0.0 1013.5 11.2 0.8
2015-Jan-28 10:00S 53°12' W 070°54'0 0.0 1013.6 7.9 0.4
2015-Jan-28 09:00S 53°12' W 070°54'0 0.0 1013.1 7.1-0.2
2015-Jan-28 08:00S 53°12' W 070°54'0 0.0 1012.7 7.3-0.0
2015-Jan-28 07:00S 53°12' W 070°54'0 0.0 1012.5 7.7-0.4
2015-Jan-28 06:00S 53°12' W 070°54'0 0.0 1012.3 7.3-0.5
2015-Jan-28 04:00S 53°12' W 070°54'0 0.0 1011.6 8.5-0.4
2015-Jan-28 03:00S 53°12' W 070°54'0 0.0 1010.8 9.4 0.9
2015-Jan-28 02:00S 53°12' W 070°54'0 0.0 1009.9 10.3 3.1
2015-Jan-28 01:00S 53°12' W 070°54'0 0.0 1008.8 11.6 4.2
2015-Jan-28 00:00S 53°12' W 070°54'0 0.0 1007.9 12.9 5.2
2015-Jan-27 23:00S 53°12' W 070°54'0 0.0 1006.9 11.9 7.8
2015-Jan-27 22:00S 53°12' W 070°54'0 0.0 1006.1 11.6 7.4
2015-Jan-27 21:00S 53°12' W 070°54'0 0.0 1005.4 12.3 6.9
2015-Jan-27 20:00S 53°12' W 070°54'0 0.0 1004.7 12.9 7.3
2015-Jan-27 19:00S 53°12' W 070°54'0 0.0 1004.2 12.3 7.0
2015-Jan-27 17:00S 53°12' W 070°54'0 0.0 1003.1 12.0 6.9
2015-Jan-27 16:00S 53°12' W 070°54'0 0.0 1002.9 12.3 7.1
2015-Jan-27 15:00S 53°12' W 070°54'0 0.0 1002.2 12.0 6.2
2015-Jan-27 14:00S 53°12' W 070°54'0 0.0 1001.5 13.4 6.0
2015-Jan-27 13:00S 53°12' W 070°54'0 0.0 1001.5 12.1 5.5
2015-Jan-27 12:00S 53°12' W 070°54'0 0.0 1001.1 10.6 5.1
2015-Jan-27 10:00S 53°12' W 070°54'0 0.0 1000.1 9.8 5.4
2015-Jan-27 09:00S 53°12' W 070°54'0 0.0 999.6 9.5 5.9
2015-Jan-27 07:00S 53°12' W 070°54'0 0.0 998.8 9.7 5.7
2015-Jan-27 06:00S 53°12' W 070°54'0 0.0 998.9 10.1 5.3
2015-Jan-27 05:00S 53°12' W 070°54'0 0.0 999.3 10.1 5.3
2015-Jan-27 03:00S 53°12' W 070°54'0 0.0 999.4 10.9 6.0
2015-Jan-27 00:00S 53°12' W 070°54'0 0.0 998.9 11.5 7.2
2015-Jan-26 23:00S 53°12' W 070°54'0 0.0 998.5 11.3 8.1
2015-Jan-26 22:00S 53°12' W 070°54'0 0.0 998.1 11.7 6.8
2015-Jan-26 21:00S 53°12' W 070°54'0 0.0 997.7 15.7 1.7
2015-Jan-26 19:00S 53°12' W 070°54'0 0.0 997.6 15.9 1.3
2015-Jan-26 18:00S 53°12' W 070°54'0 0.0 997.8 15.4 2.8
2015-Jan-26 17:00S 53°12' W 070°54'0 0.0 998.3 16.4 5.4
2015-Jan-26 13:00S 53°12' W 070°54'0 0.0 999.3 11.0 7.5
2015-Jan-26 12:00S 53°12' W 070°54'0 0.0 999.6 9.6 7.0
2015-Jan-26 11:00S 53°12' W 070°54'0 0.0 999.8 8.5 6.4
2015-Jan-26 10:00S 53°12' W 070°54'0 0.0 999.6 8.4 5.1
2015-Jan-26 09:00S 53°12' W 070°54'0 0.0 999.8 8.7 3.9
2015-Jan-26 07:00S 53°12' W 070°54'0 0.0 1001.0 9.5 2.9
2015-Jan-26 06:00S 53°12' W 070°54'0 0.0 1001.4 10.5 3.8
2015-Jan-26 05:00S 53°12' W 070°54'0 0.0 1001.9 10.5 3.7
2015-Jan-26 04:00S 53°12' W 070°54'0 0.0 1002.5 10.9 3.9
2015-Jan-26 03:00S 53°12' W 070°54'0 0.0 1002.9 11.5 3.4
2015-Jan-26 02:00S 53°12' W 070°54'0 0.0 1003.3 13.0 3.6
2015-Jan-26 01:00S 53°12' W 070°54'0 0.0 1003.3 13.4 3.0
2015-Jan-26 00:00S 53°12' W 070°54'0 0.0 1003.3 14.7 2.1
2015-Jan-25 22:00S 53°12' W 070°54'0 0.0 1003.6 14.9 1.0
2015-Jan-25 21:00S 53°12' W 070°54'0 0.0 1003.8 14.0 1.0
2015-Jan-25 20:00S 53°12' W 070°54'0 0.0 1004.0 14.1 1.0
2015-Jan-25 18:00S 53°12' W 070°54'0 0.0 1004.5 13.8-0.1
2015-Jan-25 16:00S 53°12' W 070°54'0 0.0 1005.7 12.5-0.7
2015-Jan-25 15:00S 53°12' W 070°54'0 0.0 1006.1 11.9-0.0
2015-Jan-25 13:00S 53°12' W 070°54'0 0.0 1007.0 11.3 1.3
2015-Jan-25 12:00S 53°12' W 070°54'0 0.0 1007.5 10.8 1.9
2015-Jan-25 11:00S 53°12' W 070°54'0 0.0 1007.7 8.4 1.2
2015-Jan-25 10:00S 53°12' W 070°54'0 0.0 1008.0 8.0 1.5
2015-Jan-25 09:00S 53°12' W 070°54'0 0.0 1008.1 7.7 1.1
2015-Jan-25 07:00S 53°12' W 070°54'0 0.0 1008.4 8.1-0.0
2015-Jan-25 06:00S 53°12' W 070°54'0 0.0 1009.0 7.9 0.4
2015-Jan-25 04:00S 53°12' W 070°54'0 0.0 1009.0 7.7-0.2
2015-Jan-25 02:00S 53°12' W 070°54'0 0.0 1009.0 9.5-0.1
2015-Jan-25 01:00S 53°12' W 070°54'0 0.0 1008.2 10.9 0.2
2015-Jan-25 00:00S 53°12' W 070°54'0 0.0 1007.4 12.0-2.3
2015-Jan-24 23:00S 53°12' W 070°54'0 0.0 1006.8 12.0-3.1
2015-Jan-24 21:00S 53°12' W 070°54'0 0.0 1005.6 13.8-1.8
2015-Jan-24 20:00S 53°12' W 070°54'0 0.0 1005.0 13.5-2.7
2015-Jan-24 18:00S 53°12' W 070°54'0 0.0 1003.4 13.2-2.8
2015-Jan-24 17:00S 53°12' W 070°54'0 0.0 1002.9 14.0-0.7
2015-Jan-24 15:00S 53°12' W 070°54'0 0.0 1001.5 14.4 1.0
2015-Jan-24 14:00S 53°12' W 070°54'0 0.0 1001.1 14.1 4.1
2015-Jan-24 13:00S 53°12' W 070°54'0 0.0 1000.4 14.3 4.5
2015-Jan-24 12:00S 53°12' W 070°54'0 0.0 1000.2 13.8 7.2
2015-Jan-24 11:00S 53°12' W 070°54'0 0.0 999.7 15.4 5.8
2015-Jan-24 10:00S 53°12' W 070°54'0 0.0 999.7 13.2 5.8
2015-Jan-24 09:00S 53°12' W 070°54'0 0.0 999.6 13.0 5.8
2015-Jan-24 08:00S 53°12' W 070°54'0 0.0 999.6 12.8 5.8
2015-Jan-24 07:00S 53°12' W 070°54'0 0.0 1000.1 12.0 7.1
2015-Jan-24 06:00S 53°12' W 070°54'0 0.0 1000.9 12.3 6.7
2015-Jan-24 04:00S 53°12' W 070°54'0 0.0 1002.7 17.8 3.9
2015-Jan-24 03:00S 53°12' W 070°54'0 0.0 1003.4 17.6 4.0
2015-Jan-24 02:00S 53°12' W 070°54'0 0.0 1004.0 18.4 2.7
2015-Jan-24 01:00S 53°12' W 070°54'0 0.0 1003.7 18.6 1.8
2015-Jan-24 00:00S 53°12' W 070°54'0 0.0 1003.8 19.3 0.5
2015-Jan-23 23:00S 53°12' W 070°54'0 0.0 1004.5 20.5 0.8
2015-Jan-23 22:00S 53°12' W 070°54'0 0.0 1004.7 21.8 1.4
2015-Jan-23 21:00S 53°12' W 070°54'0 0.0 1005.2 21.3-0.4
2015-Jan-23 20:00S 53°12' W 070°54'0 0.0 1005.7 21.6-0.3
2015-Jan-23 19:00S 53°12' W 070°54'0 0.0 1006.7 20.8 0.5
2015-Jan-23 18:00S 53°12' W 070°54'0 0.0 1007.6 20.8 1.4
2015-Jan-23 17:00S 53°12' W 070°54'0 0.0 1008.4 20.4 1.3
2015-Jan-23 15:00S 53°12' W 070°54'0 0.0 1009.1 18.4 2.7
2015-Jan-23 14:00S 53°12' W 070°54'0 0.0 1009.6 18.2 3.5
2015-Jan-23 12:00S 53°12' W 070°54'0 0.0 1010.2 15.6 5.0
2015-Jan-23 11:00S 53°12' W 070°54'0 0.0 1010.5 15.2 5.8
2015-Jan-23 10:00S 53°12' W 070°54'0 0.0 1010.8 13.3 5.5
2015-Jan-23 09:00S 53°12' W 070°54'0 0.0 1010.8 11.7 5.6
2015-Jan-23 08:00S 53°12' W 070°54'0 0.0 1010.4 11.6 4.8
2015-Jan-23 07:00S 53°12' W 070°54'0 0.0 1010.6 11.8 5.0
2015-Jan-22 09:00S 53°12' W 070°54'0 0.0 999.0 11.4 5.4
2015-Jan-22 08:00S 53°12' W 070°54'0 0.0 999.5 13.1 5.2
2015-Jan-22 07:00S 53°12' W 070°54'0 0.0 1000.2 14.8 3.7
2015-Jan-22 06:00S 53°12' W 070°54'0 0.0 1001.0 15.8 2.9
2015-Jan-22 05:00S 53°12' W 070°54'0 0.0 1001.3 16.6 2.7
2015-Jan-22 04:00S 53°12' W 070°54'0 0.0 1001.8 14.9 4.7
2015-Jan-22 03:00S 53°12' W 070°54'0 0.0 1002.4 15.0 5.6
2015-Jan-22 02:00S 53°12' W 070°54'0 0.0 1002.7 16.7 5.8
2015-Jan-22 01:00S 53°12' W 070°54'0 0.0 1003.0 20.3 2.3
2015-Jan-22 00:00S 53°12' W 070°54'0 0.0 1002.8 22.8 2.5
2015-Jan-21 23:00S 53°12' W 070°54'0 0.0 1003.7 21.9 3.3
2015-Jan-21 22:00S 53°12' W 070°54'0 0.0 1004.2 22.6 4.4
2015-Jan-21 21:00S 53°12' W 070°54'0 0.0 1004.7 22.3 6.1
2015-Jan-21 19:00S 53°12' W 070°54'0 0.0 1005.6 21.0 7.9
2015-Jan-21 18:00S 53°12' W 070°54'0 0.0 1006.3 19.6 8.2
2015-Jan-21 17:00S 53°12' W 070°54'0 0.0 1007.1 19.5 7.2
2015-Jan-21 16:00S 53°12' W 070°54'0 0.0 1007.5 18.3 6.2
2015-Jan-21 15:00S 53°12' W 070°54'0 0.0 1008.2 17.0 5.7
2015-Jan-21 14:00S 53°12' W 070°54'0 0.0 1008.7 15.8 6.1
2015-Jan-21 12:00S 53°12' W 070°54'0 0.0 1009.8 12.6 6.6
2015-Jan-21 11:00S 53°12' W 070°54'0 0.0 1010.5 12.7 6.6
2015-Jan-21 10:00S 53°12' W 070°54'0 0.0 1010.4 10.3 6.1
2015-Jan-21 09:00S 53°12' W 070°54'0 0.0 1010.8 9.4 6.4
2015-Jan-21 07:00S 53°12' W 070°54'0 0.0 1011.6 9.5 5.7
2015-Jan-21 06:00S 53°12' W 070°54'0 0.0 1011.4 10.5 5.8
2015-Jan-21 05:00S 53°12' W 070°54'0 0.0 1012.1 10.8 5.8
2015-Jan-21 04:00S 53°12' W 070°54'0 0.0 1012.5 11.7 5.8
2015-Jan-21 02:00S 53°12' W 070°54'0 0.0 1013.3 12.8 5.6
2015-Jan-21 01:00S 53°12' W 070°54'0 0.0 1013.0 13.5 4.8
2015-Jan-21 00:00S 53°12' W 070°54'   1013.2 14.8 5.0

Dump ship's entire track history